MSC Luisa — H9XU — position and weather

sailwx.info

Track history (hours):
 
Tides and Currents Weather Stations Pressure Air Temp Water Temp Dewpoint Dewpoint Depression Visibility Wind Speed Wind Dir Waves Ship Positions

MSC Luisa

Last reported at 2016-Jun-24 13:26 UTC. Time now 2016-Jun-28 15:12 UTC.
Position S 12°57' W 038°14'.

Length 300 m; draft 12.2 m.

Type: Ship. MMSI: 355308000.

Date/timePositionNaut miles runAvg speedWind from/ knotsBaromVisibWave heightAir tempDewpointWater temp
2016-Jun-24 13:26S 12°57' W 038°14'1719.1
2016-Jun-24 12:32S 13°06' W 038°29'10 9.9
2016-Jun-24 11:33S 12°57' W 038°32'2 1.5
2016-Jun-24 10:28S 12°57' W 038°30'0 0.0
2016-Jun-24 09:28S 12°57' W 038°30'0 0.0
2016-Jun-24 08:33S 12°57' W 038°30'0 0.0
2016-Jun-24 07:21S 12°57' W 038°30'0 0.0
2016-Jun-24 06:32S 12°57' W 038°30'0 0.0
2016-Jun-24 04:25S 12°57' W 038°30'0 0.0
2016-Jun-24 02:19S 12°57' W 038°30'0 0.0
2016-Jun-24 01:30S 12°57' W 038°30'0 0.0
2016-Jun-24 00:30S 12°57' W 038°30'0 0.0
2016-Jun-23 23:29S 12°57' W 038°30'0 0.0
2016-Jun-23 22:29S 12°57' W 038°30'0 0.0
2016-Jun-23 21:22S 12°57' W 038°30'0 0.0
2016-Jun-23 20:28S 12°57' W 038°30'0 0.0
2016-Jun-23 19:28S 12°57' W 038°30'0 0.4
2016-Jun-23 18:33S 12°57' W 038°31'5 5.3
2016-Jun-23 17:33S 13°01' W 038°34'4 3.5
2016-Jun-23 16:29S 13°03' W 038°37'0 0.0
2016-Jun-23 15:29S 13°03' W 038°37'0 0.0
2016-Jun-23 14:29S 13°03' W 038°37'0 0.0
2016-Jun-23 12:16S 13°04' W 038°37'0 0.0
2016-Jun-23 11:27S 13°04' W 038°37'0 0.0
2016-Jun-23 10:15S 13°04' W 038°37'3 4.8
2016-Jun-23 09:33S 13°07' W 038°36'11 8.0
2016-Jun-23 08:11S 13°17' W 038°33'  
2016-Jun-20 23:33S 24°22' W 045°51'1919.6
2016-Jun-20 22:33S 24°22' W 046°12'1818.3
2016-Jun-20 21:34S 24°06' W 046°23'9 9.4
2016-Jun-20 20:33S 23°58' W 046°18'4 4.0
2016-Jun-20 19:32S 23°55' W 046°21'0 0.0
2016-Jun-20 18:32S 23°55' W 046°21'0 0.0
2016-Jun-20 17:28S 23°55' W 046°21'0 0.0
2016-Jun-20 16:28S 23°55' W 046°21'0 0.0
2016-Jun-20 15:21S 23°55' W 046°21'0 0.0
2016-Jun-20 14:15S 23°55' W 046°21'0 0.0
2016-Jun-20 13:27S 23°55' W 046°21'0 0.0
2016-Jun-20 10:31S 23°55' W 046°21'0 0.0
2016-Jun-20 08:24S 23°55' W 046°21'0 0.0
2016-Jun-20 03:13S 23°55' W 046°21'0 0.0
2016-Jun-20 02:19S 23°55' W 046°21'0 0.0
2016-Jun-20 01:33S 23°55' W 046°21'0 0.0
2016-Jun-20 00:24S 23°55' W 046°21'0 0.0
2016-Jun-19 23:33S 23°55' W 046°21'4 4.0
2016-Jun-19 22:33S 23°58' W 046°18'7 6.9
2016-Jun-19 21:33S 24°04' W 046°22'7 6.5
2016-Jun-19 20:31S 24°10' W 046°19'0 0.1
2016-Jun-19 19:34S 24°10' W 046°19'0 0.0
2016-Jun-19 18:27S 24°10' W 046°19'0 0.0
2016-Jun-19 17:27S 24°10' W 046°19'0 0.0
2016-Jun-19 16:29S 24°10' W 046°19'0 0.0
2016-Jun-19 15:23S 24°10' W 046°19'0 0.0
2016-Jun-19 14:28S 24°10' W 046°19'0 0.0
2016-Jun-19 13:31S 24°10' W 046°19'0 0.0
2016-Jun-19 12:34S 24°10' W 046°19'0 0.0
2016-Jun-19 11:27S 24°10' W 046°19'0 0.0
2016-Jun-19 10:33S 24°10' W 046°19'0 0.0
2016-Jun-19 09:32S 24°10' W 046°19'0 0.0
2016-Jun-19 07:31S 24°10' W 046°19'0 0.0
2016-Jun-19 06:31S 24°10' W 046°19'0 0.0
2016-Jun-19 05:34S 24°10' W 046°19'0 0.0
2016-Jun-19 04:33S 24°10' W 046°19'0 0.0
2016-Jun-19 03:33S 24°10' W 046°19'0 0.0
2016-Jun-19 02:32S 24°10' W 046°19'0 0.0
2016-Jun-19 01:32S 24°10' W 046°19'0 0.0
2016-Jun-19 00:22S 24°10' W 046°19'0 0.0
2016-Jun-18 23:31S 24°10' W 046°19'0 0.0
2016-Jun-18 22:21S 24°10' W 046°19'0 0.0
2016-Jun-18 21:30S 24°10' W 046°19'0 0.0
2016-Jun-18 20:33S 24°10' W 046°19'0 0.0
2016-Jun-18 19:20S 24°10' W 046°19'0 0.0
2016-Jun-18 18:29S 24°10' W 046°19'0 0.0
2016-Jun-18 17:04S 24°10' W 046°19'0 0.0
2016-Jun-18 16:31S 24°10' W 046°19'0 0.0
2016-Jun-18 15:33S 24°10' W 046°19'0 0.0
2016-Jun-18 12:32S 24°10' W 046°19'0 0.0
2016-Jun-18 11:29S 24°10' W 046°19'0 0.0
2016-Jun-18 10:31S 24°10' W 046°19'0 0.0
2016-Jun-18 08:18S 24°10' W 046°19'0 0.0
2016-Jun-18 07:29S 24°10' W 046°19'0 0.0
2016-Jun-18 04:28S 24°10' W 046°19'0 0.0
2016-Jun-18 03:27S 24°10' W 046°19'0 0.0
2016-Jun-18 02:21S 24°10' W 046°19'2 2.4
2016-Jun-18 01:33S 24°09' W 046°21'10 9.5
2016-Jun-18 00:33S 23°60' W 046°20'3 2.5
2016-Jun-17 23:23S 23°58' W 046°18'0 0.2
2016-Jun-17 22:26S 23°58' W 046°18'0 0.0
2016-Jun-17 21:07S 23°58' W 046°18'0 0.3
2016-Jun-17 20:32S 23°58' W 046°18'0 0.0
2016-Jun-17 19:15S 23°58' W 046°18'1 2.0
2016-Jun-17 18:33S 23°59' W 046°17'6 6.0
2016-Jun-17 17:33S 24°04' W 046°21'7 6.1
2016-Jun-17 16:23S 24°11' W 046°19'0 0.0
2016-Jun-17 15:26S 24°11' W 046°19'0 0.0
2016-Jun-17 14:25S 24°11' W 046°19'0 0.0
2016-Jun-17 13:31S 24°11' W 046°19'0 0.0
2016-Jun-17 12:30S 24°11' W 046°19'0 0.0
2016-Jun-17 10:30S 24°11' W 046°19'0 0.0
2016-Jun-17 09:29S 24°11' W 046°19'0 0.0
2016-Jun-17 08:32S 24°11' W 046°19'0 0.0
2016-Jun-17 07:31S 24°11' W 046°19'0 0.0
2016-Jun-17 06:25S 24°11' W 046°19'0 0.0
2016-Jun-17 05:30S 24°11' W 046°19'4 3.9
2016-Jun-17 04:33S 24°14' W 046°21'8 8.4
2016-Jun-17 03:33S 24°22' W 046°21'8 7.6
2016-Jun-17 02:33S 24°30' W 046°20'7 7.3
2016-Jun-17 01:33S 24°30' W 046°28'9 8.6
2016-Jun-17 00:33S 24°36' W 046°35'1111.3
2016-Jun-16 23:33S 24°45' W 046°42'1211.7
2016-Jun-16 22:32S 24°54' W 046°50'1111.5
2016-Jun-16 21:33S 25°03' W 046°58'1211.9
2016-Jun-16 20:32S 25°13' W 047°06'1211.6
2016-Jun-16 19:32S 25°22' W 047°14'4013.6
2016-Jun-16 16:33S 25°54' W 047°41'7314.0
2016-Jun-16 11:20S 26°52' W 048°30'  
Track history (hours):
 
Tides and Currents Weather Stations Pressure Air Temp Water Temp Dewpoint Dewpoint Depression Visibility Wind Speed Wind Dir Waves Ship Positions

MSC Luisa

Last reported at 2016-Jun-24 13:26 UTC. Time now 2016-Jun-28 15:12 UTC.
Position S 12°57' W 038°14'.

Length 300 m; draft 12.2 m.

Type: Ship. MMSI: 355308000.

Date/timePositionNaut miles runAvg speedWind from/ knotsBaromVisibWave heightAir tempDewpointWater temp
2016-Jun-24 13:26S 12°57' W 038°14'1719.1
2016-Jun-24 12:32S 13°06' W 038°29'10 9.9
2016-Jun-24 11:33S 12°57' W 038°32'2 1.5
2016-Jun-24 10:28S 12°57' W 038°30'0 0.0
2016-Jun-24 09:28S 12°57' W 038°30'0 0.0
2016-Jun-24 08:33S 12°57' W 038°30'0 0.0
2016-Jun-24 07:21S 12°57' W 038°30'0 0.0
2016-Jun-24 06:32S 12°57' W 038°30'0 0.0
2016-Jun-24 04:25S 12°57' W 038°30'0 0.0
2016-Jun-24 02:19S 12°57' W 038°30'0 0.0
2016-Jun-24 01:30S 12°57' W 038°30'0 0.0
2016-Jun-24 00:30S 12°57' W 038°30'0 0.0
2016-Jun-23 23:29S 12°57' W 038°30'0 0.0
2016-Jun-23 22:29S 12°57' W 038°30'0 0.0
2016-Jun-23 21:22S 12°57' W 038°30'0 0.0
2016-Jun-23 20:28S 12°57' W 038°30'0 0.0
2016-Jun-23 19:28S 12°57' W 038°30'0 0.4
2016-Jun-23 18:33S 12°57' W 038°31'5 5.3
2016-Jun-23 17:33S 13°01' W 038°34'4 3.5
2016-Jun-23 16:29S 13°03' W 038°37'0 0.0
2016-Jun-23 15:29S 13°03' W 038°37'0 0.0
2016-Jun-23 14:29S 13°03' W 038°37'0 0.0
2016-Jun-23 12:16S 13°04' W 038°37'0 0.0
2016-Jun-23 11:27S 13°04' W 038°37'0 0.0
2016-Jun-23 10:15S 13°04' W 038°37'3 4.8
2016-Jun-23 09:33S 13°07' W 038°36'11 8.0
2016-Jun-23 08:11S 13°17' W 038°33'  
2016-Jun-20 23:33S 24°22' W 045°51'1919.6
2016-Jun-20 22:33S 24°22' W 046°12'1818.3
2016-Jun-20 21:34S 24°06' W 046°23'9 9.4
2016-Jun-20 20:33S 23°58' W 046°18'4 4.0
2016-Jun-20 19:32S 23°55' W 046°21'0 0.0
2016-Jun-20 18:32S 23°55' W 046°21'0 0.0
2016-Jun-20 17:28S 23°55' W 046°21'0 0.0
2016-Jun-20 16:28S 23°55' W 046°21'0 0.0
2016-Jun-20 15:21S 23°55' W 046°21'0 0.0
2016-Jun-20 14:15S 23°55' W 046°21'0 0.0
2016-Jun-20 13:27S 23°55' W 046°21'0 0.0
2016-Jun-20 10:31S 23°55' W 046°21'0 0.0
2016-Jun-20 08:24S 23°55' W 046°21'0 0.0
2016-Jun-20 03:13S 23°55' W 046°21'0 0.0
2016-Jun-20 02:19S 23°55' W 046°21'0 0.0
2016-Jun-20 01:33S 23°55' W 046°21'0 0.0
2016-Jun-20 00:24S 23°55' W 046°21'0 0.0
2016-Jun-19 23:33S 23°55' W 046°21'4 4.0
2016-Jun-19 22:33S 23°58' W 046°18'7 6.9
2016-Jun-19 21:33S 24°04' W 046°22'7 6.5
2016-Jun-19 20:31S 24°10' W 046°19'0 0.1
2016-Jun-19 19:34S 24°10' W 046°19'0 0.0
2016-Jun-19 18:27S 24°10' W 046°19'0 0.0
2016-Jun-19 17:27S 24°10' W 046°19'0 0.0
2016-Jun-19 16:29S 24°10' W 046°19'0 0.0
2016-Jun-19 15:23S 24°10' W 046°19'0 0.0
2016-Jun-19 14:28S 24°10' W 046°19'0 0.0
2016-Jun-19 13:31S 24°10' W 046°19'0 0.0
2016-Jun-19 12:34S 24°10' W 046°19'0 0.0
2016-Jun-19 11:27S 24°10' W 046°19'0 0.0
2016-Jun-19 10:33S 24°10' W 046°19'0 0.0
2016-Jun-19 09:32S 24°10' W 046°19'0 0.0
2016-Jun-19 07:31S 24°10' W 046°19'0 0.0
2016-Jun-19 06:31S 24°10' W 046°19'0 0.0
2016-Jun-19 05:34S 24°10' W 046°19'0 0.0
2016-Jun-19 04:33S 24°10' W 046°19'0 0.0
2016-Jun-19 03:33S 24°10' W 046°19'0 0.0
2016-Jun-19 02:32S 24°10' W 046°19'0 0.0
2016-Jun-19 01:32S 24°10' W 046°19'0 0.0
2016-Jun-19 00:22S 24°10' W 046°19'0 0.0
2016-Jun-18 23:31S 24°10' W 046°19'0 0.0
2016-Jun-18 22:21S 24°10' W 046°19'0 0.0
2016-Jun-18 21:30S 24°10' W 046°19'0 0.0
2016-Jun-18 20:33S 24°10' W 046°19'0 0.0
2016-Jun-18 19:20S 24°10' W 046°19'0 0.0
2016-Jun-18 18:29S 24°10' W 046°19'0 0.0
2016-Jun-18 17:04S 24°10' W 046°19'0 0.0
2016-Jun-18 16:31S 24°10' W 046°19'0 0.0
2016-Jun-18 15:33S 24°10' W 046°19'0 0.0
2016-Jun-18 12:32S 24°10' W 046°19'0 0.0
2016-Jun-18 11:29S 24°10' W 046°19'0 0.0
2016-Jun-18 10:31S 24°10' W 046°19'0 0.0
2016-Jun-18 08:18S 24°10' W 046°19'0 0.0
2016-Jun-18 07:29S 24°10' W 046°19'0 0.0
2016-Jun-18 04:28S 24°10' W 046°19'0 0.0
2016-Jun-18 03:27S 24°10' W 046°19'0 0.0
2016-Jun-18 02:21S 24°10' W 046°19'2 2.4
2016-Jun-18 01:33S 24°09' W 046°21'10 9.5
2016-Jun-18 00:33S 23°60' W 046°20'3 2.5
2016-Jun-17 23:23S 23°58' W 046°18'0 0.2
2016-Jun-17 22:26S 23°58' W 046°18'0 0.0
2016-Jun-17 21:07S 23°58' W 046°18'0 0.3
2016-Jun-17 20:32S 23°58' W 046°18'0 0.0
2016-Jun-17 19:15S 23°58' W 046°18'1 2.0
2016-Jun-17 18:33S 23°59' W 046°17'6 6.0
2016-Jun-17 17:33S 24°04' W 046°21'7 6.1
2016-Jun-17 16:23S 24°11' W 046°19'0 0.0
2016-Jun-17 15:26S 24°11' W 046°19'0 0.0
2016-Jun-17 14:25S 24°11' W 046°19'0 0.0
2016-Jun-17 13:31S 24°11' W 046°19'0 0.0
2016-Jun-17 12:30S 24°11' W 046°19'0 0.0
2016-Jun-17 10:30S 24°11' W 046°19'0 0.0
2016-Jun-17 09:29S 24°11' W 046°19'0 0.0
2016-Jun-17 08:32S 24°11' W 046°19'0 0.0
2016-Jun-17 07:31S 24°11' W 046°19'0 0.0
2016-Jun-17 06:25S 24°11' W 046°19'0 0.0
2016-Jun-17 05:30S 24°11' W 046°19'4 3.9
2016-Jun-17 04:33S 24°14' W 046°21'8 8.4
2016-Jun-17 03:33S 24°22' W 046°21'8 7.6
2016-Jun-17 02:33S 24°30' W 046°20'7 7.3
2016-Jun-17 01:33S 24°30' W 046°28'9 8.6
2016-Jun-17 00:33S 24°36' W 046°35'1111.3
2016-Jun-16 23:33S 24°45' W 046°42'1211.7
2016-Jun-16 22:32S 24°54' W 046°50'1111.5
2016-Jun-16 21:33S 25°03' W 046°58'1211.9
2016-Jun-16 20:32S 25°13' W 047°06'1211.6
2016-Jun-16 19:32S 25°22' W 047°14'4013.6
2016-Jun-16 16:33S 25°54' W 047°41'7314.0
2016-Jun-16 11:20S 26°52' W 048°30'  

Dump ship's entire track history